sensor_id;sensor_type;location;lat;lon;timestamp;P1;durP1;ratioP1;P2;durP2;ratioP2
7657;SDS011;8462;53.156;8.220;2024-02-23T00:01:51;1.00;;;0.40;;
7657;SDS011;8462;53.156;8.220;2024-02-23T00:04:20;0.30;;;0.30;;
7657;SDS011;8462;53.156;8.220;2024-02-23T00:06:53;0.43;;;0.43;;
7657;SDS011;8462;53.156;8.220;2024-02-23T00:09:21;0.40;;;0.40;;
7657;SDS011;8462;53.156;8.220;2024-02-23T00:11:50;1.03;;;0.50;;
7657;SDS011;8462;53.156;8.220;2024-02-23T00:14:18;0.40;;;0.40;;
7657;SDS011;8462;53.156;8.220;2024-02-23T00:16:48;1.13;;;0.70;;
7657;SDS011;8462;53.156;8.220;2024-02-23T00:19:16;1.50;;;0.60;;
7657;SDS011;8462;53.156;8.220;2024-02-23T00:21:46;0.50;;;0.40;;
7657;SDS011;8462;53.156;8.220;2024-02-23T00:24:17;1.00;;;0.40;;
7657;SDS011;8462;53.156;8.220;2024-02-23T00:26:46;1.17;;;0.50;;
7657;SDS011;8462;53.156;8.220;2024-02-23T00:29:14;0.23;;;0.23;;
7657;SDS011;8462;53.156;8.220;2024-02-23T00:31:44;0.77;;;0.30;;
7657;SDS011;8462;53.156;8.220;2024-02-23T00:34:14;0.30;;;0.30;;
7657;SDS011;8462;53.156;8.220;2024-02-23T00:36:43;0.33;;;0.30;;
7657;SDS011;8462;53.156;8.220;2024-02-23T00:39:12;0.40;;;0.40;;
7657;SDS011;8462;53.156;8.220;2024-02-23T00:41:43;0.33;;;0.33;;
7657;SDS011;8462;53.156;8.220;2024-02-23T00:44:11;0.40;;;0.40;;
7657;SDS011;8462;53.156;8.220;2024-02-23T00:46:39;0.40;;;0.40;;
7657;SDS011;8462;53.156;8.220;2024-02-23T00:49:07;1.10;;;0.70;;
7657;SDS011;8462;53.156;8.220;2024-02-23T00:51:39;1.17;;;0.80;;
7657;SDS011;8462;53.156;8.220;2024-02-23T00:54:09;0.30;;;0.30;;
7657;SDS011;8462;53.156;8.220;2024-02-23T00:56:37;0.60;;;0.40;;
7657;SDS011;8462;53.156;8.220;2024-02-23T00:59:06;2.10;;;0.50;;
7657;SDS011;8462;53.156;8.220;2024-02-23T01:01:34;0.50;;;0.50;;
7657;SDS011;8462;53.156;8.220;2024-02-23T01:04:02;0.60;;;0.53;;
7657;SDS011;8462;53.156;8.220;2024-02-23T01:06:31;0.30;;;0.30;;
7657;SDS011;8462;53.156;8.220;2024-02-23T01:09:01;0.33;;;0.33;;
7657;SDS011;8462;53.156;8.220;2024-02-23T01:11:29;0.30;;;0.30;;
7657;SDS011;8462;53.156;8.220;2024-02-23T01:13:59;0.33;;;0.33;;
7657;SDS011;8462;53.156;8.220;2024-02-23T01:16:26;0.40;;;0.40;;
7657;SDS011;8462;53.156;8.220;2024-02-23T01:18:55;0.80;;;0.40;;
7657;SDS011;8462;53.156;8.220;2024-02-23T01:21:23;0.30;;;0.30;;
7657;SDS011;8462;53.156;8.220;2024-02-23T01:23:52;0.60;;;0.50;;
7657;SDS011;8462;53.156;8.220;2024-02-23T01:26:24;0.40;;;0.40;;
7657;SDS011;8462;53.156;8.220;2024-02-23T01:28:53;0.40;;;0.40;;
7657;SDS011;8462;53.156;8.220;2024-02-23T01:31:22;0.40;;;0.40;;
7657;SDS011;8462;53.156;8.220;2024-02-23T01:33:50;1.13;;;0.60;;
7657;SDS011;8462;53.156;8.220;2024-02-23T01:36:23;3.43;;;0.40;;
7657;SDS011;8462;53.156;8.220;2024-02-23T01:38:50;2.20;;;1.13;;
7657;SDS011;8462;53.156;8.220;2024-02-23T01:41:27;3.03;;;1.20;;
7657;SDS011;8462;53.156;8.220;2024-02-23T01:43:56;3.23;;;1.10;;
7657;SDS011;8462;53.156;8.220;2024-02-23T01:46:24;2.77;;;1.30;;
7657;SDS011;8462;53.156;8.220;2024-02-23T01:48:54;1.40;;;0.87;;
7657;SDS011;8462;53.156;8.220;2024-02-23T01:51:27;1.17;;;0.80;;
7657;SDS011;8462;53.156;8.220;2024-02-23T01:53:55;1.17;;;0.53;;
7657;SDS011;8462;53.156;8.220;2024-02-23T01:56:23;0.57;;;0.57;;
7657;SDS011;8462;53.156;8.220;2024-02-23T01:58:53;0.40;;;0.40;;
7657;SDS011;8462;53.156;8.220;2024-02-23T02:01:23;0.60;;;0.50;;
7657;SDS011;8462;53.156;8.220;2024-02-23T02:03:51;2.20;;;0.50;;
7657;SDS011;8462;53.156;8.220;2024-02-23T02:06:19;0.47;;;0.40;;
7657;SDS011;8462;53.156;8.220;2024-02-23T02:08:51;0.40;;;0.40;;
7657;SDS011;8462;53.156;8.220;2024-02-23T02:11:18;0.50;;;0.50;;
7657;SDS011;8462;53.156;8.220;2024-02-23T02:13:46;1.20;;;0.40;;
7657;SDS011;8462;53.156;8.220;2024-02-23T02:16:16;0.70;;;0.40;;
7657;SDS011;8462;53.156;8.220;2024-02-23T02:18:46;0.20;;;0.20;;
7657;SDS011;8462;53.156;8.220;2024-02-23T02:21:13;1.47;;;0.47;;
7657;SDS011;8462;53.156;8.220;2024-02-23T02:23:42;0.30;;;0.30;;
7657;SDS011;8462;53.156;8.220;2024-02-23T02:26:11;0.40;;;0.40;;
7657;SDS011;8462;53.156;8.220;2024-02-23T02:28:42;1.23;;;0.40;;
7657;SDS011;8462;53.156;8.220;2024-02-23T02:31:11;0.30;;;0.30;;
7657;SDS011;8462;53.156;8.220;2024-02-23T02:33:42;0.30;;;0.30;;
7657;SDS011;8462;53.156;8.220;2024-02-23T02:36:14;0.40;;;0.40;;
7657;SDS011;8462;53.156;8.220;2024-02-23T02:38:41;0.30;;;0.30;;
7657;SDS011;8462;53.156;8.220;2024-02-23T02:41:09;1.30;;;0.40;;
7657;SDS011;8462;53.156;8.220;2024-02-23T02:43:36;0.50;;;0.33;;
7657;SDS011;8462;53.156;8.220;2024-02-23T02:46:06;0.40;;;0.40;;
7657;SDS011;8462;53.156;8.220;2024-02-23T02:48:39;0.60;;;0.60;;
7657;SDS011;8462;53.156;8.220;2024-02-23T02:51:09;0.40;;;0.40;;
7657;SDS011;8462;53.156;8.220;2024-02-23T02:53:37;1.13;;;0.43;;
7657;SDS011;8462;53.156;8.220;2024-02-23T02:56:05;2.40;;;0.70;;
7657;SDS011;8462;53.156;8.220;2024-02-23T02:58:34;4.00;;;1.33;;
7657;SDS011;8462;53.156;8.220;2024-02-23T03:01:03;1.13;;;0.60;;
7657;SDS011;8462;53.156;8.220;2024-02-23T03:03:31;0.70;;;0.57;;
7657;SDS011;8462;53.156;8.220;2024-02-23T03:06:08;3.63;;;0.90;;
7657;SDS011;8462;53.156;8.220;2024-02-23T03:08:36;2.53;;;0.83;;
7657;SDS011;8462;53.156;8.220;2024-02-23T03:11:04;2.10;;;1.13;;
7657;SDS011;8462;53.156;8.220;2024-02-23T03:13:34;1.40;;;1.03;;
7657;SDS011;8462;53.156;8.220;2024-02-23T03:16:04;2.93;;;1.10;;
7657;SDS011;8462;53.156;8.220;2024-02-23T03:18:31;2.13;;;1.00;;
7657;SDS011;8462;53.156;8.220;2024-02-23T03:21:03;2.83;;;1.20;;
7657;SDS011;8462;53.156;8.220;2024-02-23T03:23:34;2.40;;;1.10;;
7657;SDS011;8462;53.156;8.220;2024-02-23T03:26:06;6.13;;;1.10;;
7657;SDS011;8462;53.156;8.220;2024-02-23T03:28:36;2.33;;;1.30;;
7657;SDS011;8462;53.156;8.220;2024-02-23T03:31:05;2.53;;;1.10;;
7657;SDS011;8462;53.156;8.220;2024-02-23T03:33:33;3.50;;;1.77;;
7657;SDS011;8462;53.156;8.220;2024-02-23T03:36:03;3.07;;;1.60;;
7657;SDS011;8462;53.156;8.220;2024-02-23T03:38:31;5.73;;;1.97;;
7657;SDS011;8462;53.156;8.220;2024-02-23T03:41:01;3.53;;;1.40;;
7657;SDS011;8462;53.156;8.220;2024-02-23T03:43:30;3.87;;;1.77;;
7657;SDS011;8462;53.156;8.220;2024-02-23T03:46:00;4.80;;;2.10;;
7657;SDS011;8462;53.156;8.220;2024-02-23T03:48:28;3.87;;;2.17;;
7657;SDS011;8462;53.156;8.220;2024-02-23T03:50:56;5.83;;;2.40;;
7657;SDS011;8462;53.156;8.220;2024-02-23T03:53:25;3.43;;;2.10;;
7657;SDS011;8462;53.156;8.220;2024-02-23T03:55:53;3.37;;;2.17;;
7657;SDS011;8462;53.156;8.220;2024-02-23T03:58:24;4.87;;;2.40;;
7657;SDS011;8462;53.156;8.220;2024-02-23T04:00:51;5.47;;;2.93;;
7657;SDS011;8462;53.156;8.220;2024-02-23T04:03:21;4.53;;;2.17;;
7657;SDS011;8462;53.156;8.220;2024-02-23T04:05:53;4.43;;;2.30;;
7657;SDS011;8462;53.156;8.220;2024-02-23T04:08:22;5.50;;;2.87;;
7657;SDS011;8462;53.156;8.220;2024-02-23T04:10:51;2.77;;;1.80;;
7657;SDS011;8462;53.156;8.220;2024-02-23T04:13:19;3.37;;;1.80;;
7657;SDS011;8462;53.156;8.220;2024-02-23T04:15:49;1.87;;;1.57;;
7657;SDS011;8462;53.156;8.220;2024-02-23T04:18:19;2.37;;;1.40;;
7657;SDS011;8462;53.156;8.220;2024-02-23T04:20:47;3.13;;;1.30;;
7657;SDS011;8462;53.156;8.220;2024-02-23T04:23:16;2.00;;;1.00;;
7657;SDS011;8462;53.156;8.220;2024-02-23T04:25:44;1.10;;;0.90;;
7657;SDS011;8462;53.156;8.220;2024-02-23T04:28:16;2.07;;;1.00;;
7657;SDS011;8462;53.156;8.220;2024-02-23T04:30:45;4.87;;;1.63;;
7657;SDS011;8462;53.156;8.220;2024-02-23T04:33:14;3.40;;;1.20;;
7657;SDS011;8462;53.156;8.220;2024-02-23T04:35:41;2.50;;;0.80;;
7657;SDS011;8462;53.156;8.220;2024-02-23T04:38:09;3.13;;;0.87;;
7657;SDS011;8462;53.156;8.220;2024-02-23T04:40:39;1.77;;;0.83;;
7657;SDS011;8462;53.156;8.220;2024-02-23T04:43:08;2.20;;;0.80;;
7657;SDS011;8462;53.156;8.220;2024-02-23T04:45:36;2.73;;;1.33;;
7657;SDS011;8462;53.156;8.220;2024-02-23T04:48:04;0.97;;;0.80;;
7657;SDS011;8462;53.156;8.220;2024-02-23T04:50:33;4.20;;;0.80;;
7657;SDS011;8462;53.156;8.220;2024-02-23T04:53:02;1.63;;;0.83;;
7657;SDS011;8462;53.156;8.220;2024-02-23T04:55:30;2.07;;;1.03;;
7657;SDS011;8462;53.156;8.220;2024-02-23T04:57:58;2.60;;;1.10;;
7657;SDS011;8462;53.156;8.220;2024-02-23T05:00:26;2.97;;;1.07;;
7657;SDS011;8462;53.156;8.220;2024-02-23T05:02:58;1.73;;;1.10;;
7657;SDS011;8462;53.156;8.220;2024-02-23T05:05:29;3.10;;;1.33;;
7657;SDS011;8462;53.156;8.220;2024-02-23T05:07:59;2.90;;;1.57;;
7657;SDS011;8462;53.156;8.220;2024-02-23T05:10:26;1.63;;;1.20;;
7657;SDS011;8462;53.156;8.220;2024-02-23T05:12:54;4.87;;;1.53;;
7657;SDS011;8462;53.156;8.220;2024-02-23T05:15:22;6.27;;;2.10;;
7657;SDS011;8462;53.156;8.220;2024-02-23T05:17:50;3.20;;;1.90;;
7657;SDS011;8462;53.156;8.220;2024-02-23T05:20:20;7.10;;;2.00;;
7657;SDS011;8462;53.156;8.220;2024-02-23T05:22:48;4.90;;;2.27;;
7657;SDS011;8462;53.156;8.220;2024-02-23T05:25:17;5.13;;;2.23;;
7657;SDS011;8462;53.156;8.220;2024-02-23T05:27:44;2.53;;;2.03;;
7657;SDS011;8462;53.156;8.220;2024-02-23T05:30:12;5.07;;;2.00;;
7657;SDS011;8462;53.156;8.220;2024-02-23T05:32:40;6.87;;;2.80;;
7657;SDS011;8462;53.156;8.220;2024-02-23T05:35:07;4.60;;;2.73;;
7657;SDS011;8462;53.156;8.220;2024-02-23T05:37:37;4.07;;;2.37;;
7657;SDS011;8462;53.156;8.220;2024-02-23T05:40:07;4.10;;;2.57;;
7657;SDS011;8462;53.156;8.220;2024-02-23T05:42:38;5.37;;;2.57;;
7657;SDS011;8462;53.156;8.220;2024-02-23T05:45:06;5.27;;;2.90;;
7657;SDS011;8462;53.156;8.220;2024-02-23T05:47:37;3.83;;;2.90;;
7657;SDS011;8462;53.156;8.220;2024-02-23T05:50:07;3.60;;;2.73;;
7657;SDS011;8462;53.156;8.220;2024-02-23T05:52:36;6.63;;;2.80;;
7657;SDS011;8462;53.156;8.220;2024-02-23T05:55:06;4.07;;;2.70;;
7657;SDS011;8462;53.156;8.220;2024-02-23T05:57:34;3.57;;;2.80;;
7657;SDS011;8462;53.156;8.220;2024-02-23T06:00:04;4.90;;;3.20;;
7657;SDS011;8462;53.156;8.220;2024-02-23T06:02:39;4.30;;;2.80;;
7657;SDS011;8462;53.156;8.220;2024-02-23T06:05:07;3.90;;;2.90;;
7657;SDS011;8462;53.156;8.220;2024-02-23T06:07:37;5.80;;;2.90;;
7657;SDS011;8462;53.156;8.220;2024-02-23T06:10:05;3.87;;;2.73;;
7657;SDS011;8462;53.156;8.220;2024-02-23T06:12:35;5.60;;;3.03;;
7657;SDS011;8462;53.156;8.220;2024-02-23T06:15:06;3.10;;;2.80;;
7657;SDS011;8462;53.156;8.220;2024-02-23T06:17:35;7.53;;;2.97;;
7657;SDS011;8462;53.156;8.220;2024-02-23T06:20:06;3.47;;;2.77;;
7657;SDS011;8462;53.156;8.220;2024-02-23T06:22:36;4.13;;;3.20;;
7657;SDS011;8462;53.156;8.220;2024-02-23T06:25:04;5.03;;;2.87;;
7657;SDS011;8462;53.156;8.220;2024-02-23T06:27:35;3.53;;;2.93;;
7657;SDS011;8462;53.156;8.220;2024-02-23T06:30:03;3.67;;;2.70;;
7657;SDS011;8462;53.156;8.220;2024-02-23T06:32:34;5.47;;;3.43;;
7657;SDS011;8462;53.156;8.220;2024-02-23T06:35:03;5.73;;;2.60;;
7657;SDS011;8462;53.156;8.220;2024-02-23T06:37:32;7.17;;;3.00;;
7657;SDS011;8462;53.156;8.220;2024-02-23T06:40:00;7.93;;;3.10;;
7657;SDS011;8462;53.156;8.220;2024-02-23T06:42:30;5.80;;;3.20;;
7657;SDS011;8462;53.156;8.220;2024-02-23T06:45:00;5.87;;;2.97;;
7657;SDS011;8462;53.156;8.220;2024-02-23T06:47:28;5.27;;;2.60;;
7657;SDS011;8462;53.156;8.220;2024-02-23T06:49:58;5.67;;;2.87;;
7657;SDS011;8462;53.156;8.220;2024-02-23T06:52:26;4.93;;;2.90;;
7657;SDS011;8462;53.156;8.220;2024-02-23T06:54:55;9.03;;;2.87;;
7657;SDS011;8462;53.156;8.220;2024-02-23T06:57:23;4.07;;;2.83;;
7657;SDS011;8462;53.156;8.220;2024-02-23T06:59:52;7.17;;;2.20;;
7657;SDS011;8462;53.156;8.220;2024-02-23T07:02:22;7.23;;;2.40;;
7657;SDS011;8462;53.156;8.220;2024-02-23T07:04:51;2.97;;;1.80;;
7657;SDS011;8462;53.156;8.220;2024-02-23T07:07:22;4.17;;;2.47;;
7657;SDS011;8462;53.156;8.220;2024-02-23T07:09:50;5.73;;;2.20;;
7657;SDS011;8462;53.156;8.220;2024-02-23T07:12:23;8.33;;;2.77;;
7657;SDS011;8462;53.156;8.220;2024-02-23T07:14:52;6.47;;;2.80;;
7657;SDS011;8462;53.156;8.220;2024-02-23T07:17:20;4.63;;;2.50;;
7657;SDS011;8462;53.156;8.220;2024-02-23T07:19:49;4.93;;;2.37;;
7657;SDS011;8462;53.156;8.220;2024-02-23T07:22:17;4.57;;;2.73;;
7657;SDS011;8462;53.156;8.220;2024-02-23T07:24:49;5.43;;;2.10;;
7657;SDS011;8462;53.156;8.220;2024-02-23T07:27:17;6.90;;;2.47;;
7657;SDS011;8462;53.156;8.220;2024-02-23T07:29:44;5.63;;;2.50;;
7657;SDS011;8462;53.156;8.220;2024-02-23T07:32:13;7.13;;;2.27;;
7657;SDS011;8462;53.156;8.220;2024-02-23T07:34:42;2.83;;;2.20;;
7657;SDS011;8462;53.156;8.220;2024-02-23T07:37:09;3.77;;;1.87;;
7657;SDS011;8462;53.156;8.220;2024-02-23T07:39:43;5.43;;;2.03;;
7657;SDS011;8462;53.156;8.220;2024-02-23T07:42:13;3.97;;;2.00;;
7657;SDS011;8462;53.156;8.220;2024-02-23T07:44:43;6.03;;;1.97;;
7657;SDS011;8462;53.156;8.220;2024-02-23T07:47:12;4.57;;;2.50;;
7657;SDS011;8462;53.156;8.220;2024-02-23T07:49:40;6.87;;;2.93;;
7657;SDS011;8462;53.156;8.220;2024-02-23T07:52:09;7.47;;;2.17;;
7657;SDS011;8462;53.156;8.220;2024-02-23T07:54:37;3.00;;;2.10;;
7657;SDS011;8462;53.156;8.220;2024-02-23T07:57:05;5.53;;;2.23;;
7657;SDS011;8462;53.156;8.220;2024-02-23T07:59:35;5.73;;;2.13;;
7657;SDS011;8462;53.156;8.220;2024-02-23T08:02:03;4.50;;;2.10;;
7657;SDS011;8462;53.156;8.220;2024-02-23T08:04:33;3.70;;;1.97;;
7657;SDS011;8462;53.156;8.220;2024-02-23T08:07:02;3.93;;;1.90;;
7657;SDS011;8462;53.156;8.220;2024-02-23T08:09:30;5.63;;;2.30;;
7657;SDS011;8462;53.156;8.220;2024-02-23T08:12:01;4.23;;;2.20;;
7657;SDS011;8462;53.156;8.220;2024-02-23T08:14:29;4.27;;;1.80;;
7657;SDS011;8462;53.156;8.220;2024-02-23T08:17:00;6.43;;;1.90;;
7657;SDS011;8462;53.156;8.220;2024-02-23T08:19:28;5.77;;;2.40;;
7657;SDS011;8462;53.156;8.220;2024-02-23T08:21:58;9.03;;;2.80;;
7657;SDS011;8462;53.156;8.220;2024-02-23T08:24:28;8.23;;;2.27;;
7657;SDS011;8462;53.156;8.220;2024-02-23T08:26:56;5.50;;;1.90;;
7657;SDS011;8462;53.156;8.220;2024-02-23T08:29:23;6.23;;;2.57;;
7657;SDS011;8462;53.156;8.220;2024-02-23T08:31:52;4.03;;;2.37;;
7657;SDS011;8462;53.156;8.220;2024-02-23T08:34:29;5.33;;;2.30;;
7657;SDS011;8462;53.156;8.220;2024-02-23T08:37:02;4.50;;;1.93;;
7657;SDS011;8462;53.156;8.220;2024-02-23T08:39:32;7.17;;;2.63;;
7657;SDS011;8462;53.156;8.220;2024-02-23T08:42:04;4.67;;;2.00;;
7657;SDS011;8462;53.156;8.220;2024-02-23T08:44:31;3.90;;;1.93;;
7657;SDS011;8462;53.156;8.220;2024-02-23T08:47:01;6.87;;;2.03;;
7657;SDS011;8462;53.156;8.220;2024-02-23T08:49:30;6.37;;;2.03;;
7657;SDS011;8462;53.156;8.220;2024-02-23T08:52:01;3.53;;;1.93;;
7657;SDS011;8462;53.156;8.220;2024-02-23T08:54:33;5.43;;;2.20;;
7657;SDS011;8462;53.156;8.220;2024-02-23T08:59:54;4.57;;;1.80;;
7657;SDS011;8462;53.156;8.220;2024-02-23T09:02:25;6.10;;;1.77;;
7657;SDS011;8462;53.156;8.220;2024-02-23T09:04:54;5.37;;;1.93;;
7657;SDS011;8462;53.156;8.220;2024-02-23T09:07:24;4.83;;;1.80;;
7657;SDS011;8462;53.156;8.220;2024-02-23T09:09:52;2.17;;;1.63;;
7657;SDS011;8462;53.156;8.220;2024-02-23T09:12:23;4.63;;;2.20;;
7657;SDS011;8462;53.156;8.220;2024-02-23T09:14:51;5.23;;;1.90;;
7657;SDS011;8462;53.156;8.220;2024-02-23T09:17:20;1.60;;;1.17;;
7657;SDS011;8462;53.156;8.220;2024-02-23T09:19:56;4.03;;;1.80;;
7657;SDS011;8462;53.156;8.220;2024-02-23T09:22:28;6.00;;;1.67;;
7657;SDS011;8462;53.156;8.220;2024-02-23T09:24:57;2.97;;;1.33;;
7657;SDS011;8462;53.156;8.220;2024-02-23T09:27:24;5.63;;;2.03;;
7657;SDS011;8462;53.156;8.220;2024-02-23T09:29:53;5.30;;;1.83;;
7657;SDS011;8462;53.156;8.220;2024-02-23T09:32:21;3.47;;;1.30;;
7657;SDS011;8462;53.156;8.220;2024-02-23T09:34:49;2.63;;;1.40;;
7657;SDS011;8462;53.156;8.220;2024-02-23T09:37:19;4.50;;;1.10;;
7657;SDS011;8462;53.156;8.220;2024-02-23T09:39:47;2.87;;;1.00;;
7657;SDS011;8462;53.156;8.220;2024-02-23T09:42:15;5.57;;;1.57;;
7657;SDS011;8462;53.156;8.220;2024-02-23T09:44:43;3.50;;;1.67;;
7657;SDS011;8462;53.156;8.220;2024-02-23T09:47:15;5.07;;;1.80;;
7657;SDS011;8462;53.156;8.220;2024-02-23T09:49:44;2.63;;;1.40;;
7657;SDS011;8462;53.156;8.220;2024-02-23T09:52:20;3.97;;;1.70;;
7657;SDS011;8462;53.156;8.220;2024-02-23T09:54:49;6.80;;;1.43;;
7657;SDS011;8462;53.156;8.220;2024-02-23T09:57:18;2.57;;;1.20;;
7657;SDS011;8462;53.156;8.220;2024-02-23T09:59:47;1.40;;;1.07;;
7657;SDS011;8462;53.156;8.220;2024-02-23T10:02:15;4.30;;;1.30;;
7657;SDS011;8462;53.156;8.220;2024-02-23T10:04:43;3.90;;;1.10;;
7657;SDS011;8462;53.156;8.220;2024-02-23T10:07:14;5.03;;;1.30;;
7657;SDS011;8462;53.156;8.220;2024-02-23T10:09:44;2.40;;;1.10;;
7657;SDS011;8462;53.156;8.220;2024-02-23T10:12:11;5.20;;;1.10;;
7657;SDS011;8462;53.156;8.220;2024-02-23T10:14:40;3.40;;;1.43;;
7657;SDS011;8462;53.156;8.220;2024-02-23T10:17:10;4.23;;;1.37;;
7657;SDS011;8462;53.156;8.220;2024-02-23T10:19:38;3.50;;;1.57;;
7657;SDS011;8462;53.156;8.220;2024-02-23T10:22:06;5.53;;;1.70;;
7657;SDS011;8462;53.156;8.220;2024-02-23T10:24:34;3.53;;;1.13;;
7657;SDS011;8462;53.156;8.220;2024-02-23T10:27:05;5.23;;;1.23;;
7657;SDS011;8462;53.156;8.220;2024-02-23T10:29:33;2.50;;;1.20;;
7657;SDS011;8462;53.156;8.220;2024-02-23T10:32:01;5.00;;;1.37;;
7657;SDS011;8462;53.156;8.220;2024-02-23T10:34:31;6.10;;;1.20;;
7657;SDS011;8462;53.156;8.220;2024-02-23T10:37:02;3.63;;;1.23;;
7657;SDS011;8462;53.156;8.220;2024-02-23T10:39:33;2.87;;;1.17;;
7657;SDS011;8462;53.156;8.220;2024-02-23T10:42:06;2.47;;;1.20;;
7657;SDS011;8462;53.156;8.220;2024-02-23T10:44:38;3.97;;;1.23;;
7657;SDS011;8462;53.156;8.220;2024-02-23T10:47:07;4.03;;;1.10;;
7657;SDS011;8462;53.156;8.220;2024-02-23T10:49:36;3.40;;;1.30;;
7657;SDS011;8462;53.156;8.220;2024-02-23T10:52:09;3.67;;;1.50;;
7657;SDS011;8462;53.156;8.220;2024-02-23T10:54:40;3.20;;;1.70;;
7657;SDS011;8462;53.156;8.220;2024-02-23T10:57:10;4.50;;;1.73;;
7657;SDS011;8462;53.156;8.220;2024-02-23T10:59:41;3.40;;;1.40;;
7657;SDS011;8462;53.156;8.220;2024-02-23T11:02:09;1.83;;;1.10;;
7657;SDS011;8462;53.156;8.220;2024-02-23T11:04:42;3.97;;;1.47;;
7657;SDS011;8462;53.156;8.220;2024-02-23T11:07:18;5.13;;;1.70;;
7657;SDS011;8462;53.156;8.220;2024-02-23T11:09:48;3.47;;;1.33;;
7657;SDS011;8462;53.156;8.220;2024-02-23T11:12:23;6.53;;;2.10;;
7657;SDS011;8462;53.156;8.220;2024-02-23T11:14:56;4.67;;;1.43;;
7657;SDS011;8462;53.156;8.220;2024-02-23T11:17:26;4.07;;;1.70;;
7657;SDS011;8462;53.156;8.220;2024-02-23T11:19:56;2.57;;;1.20;;
7657;SDS011;8462;53.156;8.220;2024-02-23T11:22:24;3.77;;;1.60;;
7657;SDS011;8462;53.156;8.220;2024-02-23T11:24:53;4.47;;;1.67;;
7657;SDS011;8462;53.156;8.220;2024-02-23T11:27:31;1.90;;;1.23;;
7657;SDS011;8462;53.156;8.220;2024-02-23T11:30:04;2.97;;;1.50;;
7657;SDS011;8462;53.156;8.220;2024-02-23T11:32:36;4.77;;;2.30;;
7657;SDS011;8462;53.156;8.220;2024-02-23T11:35:07;4.50;;;2.13;;
7657;SDS011;8462;53.156;8.220;2024-02-23T11:37:47;5.77;;;1.60;;
7657;SDS011;8462;53.156;8.220;2024-02-23T11:40:17;5.43;;;1.83;;
7657;SDS011;8462;53.156;8.220;2024-02-23T11:42:46;4.87;;;2.07;;
7657;SDS011;8462;53.156;8.220;2024-02-23T11:45:16;7.77;;;3.77;;
7657;SDS011;8462;53.156;8.220;2024-02-23T11:47:45;7.13;;;3.10;;
7657;SDS011;8462;53.156;8.220;2024-02-23T11:50:13;11.17;;;4.00;;
7657;SDS011;8462;53.156;8.220;2024-02-23T11:52:42;5.63;;;2.53;;
7657;SDS011;8462;53.156;8.220;2024-02-23T11:55:12;7.63;;;3.20;;
7657;SDS011;8462;53.156;8.220;2024-02-23T11:57:51;4.53;;;2.37;;
7657;SDS011;8462;53.156;8.220;2024-02-23T12:00:18;2.20;;;1.60;;
7657;SDS011;8462;53.156;8.220;2024-02-23T12:05:28;4.00;;;1.60;;
7657;SDS011;8462;53.156;8.220;2024-02-23T12:07:55;3.60;;;1.93;;
7657;SDS011;8462;53.156;8.220;2024-02-23T12:10:23;3.73;;;1.60;;
7657;SDS011;8462;53.156;8.220;2024-02-23T12:12:54;2.67;;;1.17;;
7657;SDS011;8462;53.156;8.220;2024-02-23T12:15:22;3.87;;;1.50;;
7657;SDS011;8462;53.156;8.220;2024-02-23T12:17:50;4.10;;;1.50;;
7657;SDS011;8462;53.156;8.220;2024-02-23T12:20:19;3.63;;;1.60;;
7657;SDS011;8462;53.156;8.220;2024-02-23T12:22:47;4.83;;;1.70;;
7657;SDS011;8462;53.156;8.220;2024-02-23T12:25:20;2.90;;;1.67;;
7657;SDS011;8462;53.156;8.220;2024-02-23T12:27:54;3.93;;;1.57;;
7657;SDS011;8462;53.156;8.220;2024-02-23T12:30:23;2.70;;;1.33;;
7657;SDS011;8462;53.156;8.220;2024-02-23T12:32:52;3.50;;;1.63;;
7657;SDS011;8462;53.156;8.220;2024-02-23T12:35:33;2.43;;;1.57;;
7657;SDS011;8462;53.156;8.220;2024-02-23T12:38:02;5.93;;;1.70;;
7657;SDS011;8462;53.156;8.220;2024-02-23T12:40:31;2.83;;;1.43;;
7657;SDS011;8462;53.156;8.220;2024-02-23T12:43:00;2.90;;;1.50;;
7657;SDS011;8462;53.156;8.220;2024-02-23T12:45:27;2.40;;;1.53;;
7657;SDS011;8462;53.156;8.220;2024-02-23T12:47:55;5.53;;;1.90;;
7657;SDS011;8462;53.156;8.220;2024-02-23T12:50:24;4.70;;;2.10;;
7657;SDS011;8462;53.156;8.220;2024-02-23T12:52:59;3.53;;;2.60;;
7657;SDS011;8462;53.156;8.220;2024-02-23T12:55:29;2.47;;;1.43;;
7657;SDS011;8462;53.156;8.220;2024-02-23T12:57:57;2.00;;;1.37;;
7657;SDS011;8462;53.156;8.220;2024-02-23T13:00:26;3.67;;;1.40;;
7657;SDS011;8462;53.156;8.220;2024-02-23T13:02:53;2.83;;;1.40;;
7657;SDS011;8462;53.156;8.220;2024-02-23T13:05:22;5.73;;;1.57;;
7657;SDS011;8462;53.156;8.220;2024-02-23T13:07:51;3.00;;;1.40;;
7657;SDS011;8462;53.156;8.220;2024-02-23T13:10:21;3.47;;;1.40;;
7657;SDS011;8462;53.156;8.220;2024-02-23T13:12:48;5.37;;;1.80;;
7657;SDS011;8462;53.156;8.220;2024-02-23T13:15:21;3.43;;;1.77;;
7657;SDS011;8462;53.156;8.220;2024-02-23T13:17:50;2.93;;;1.60;;
7657;SDS011;8462;53.156;8.220;2024-02-23T13:20:19;2.50;;;1.50;;
7657;SDS011;8462;53.156;8.220;2024-02-23T13:22:47;2.13;;;1.40;;
7657;SDS011;8462;53.156;8.220;2024-02-23T13:25:17;8.10;;;4.43;;
7657;SDS011;8462;53.156;8.220;2024-02-23T13:27:45;3.13;;;1.50;;
7657;SDS011;8462;53.156;8.220;2024-02-23T13:30:14;3.40;;;1.40;;
7657;SDS011;8462;53.156;8.220;2024-02-23T13:32:41;5.10;;;1.90;;
7657;SDS011;8462;53.156;8.220;2024-02-23T13:35:11;3.77;;;1.60;;
7657;SDS011;8462;53.156;8.220;2024-02-23T13:37:41;4.37;;;1.83;;
7657;SDS011;8462;53.156;8.220;2024-02-23T13:40:10;4.30;;;1.20;;
7657;SDS011;8462;53.156;8.220;2024-02-23T13:42:38;5.23;;;2.00;;
7657;SDS011;8462;53.156;8.220;2024-02-23T13:45:06;3.03;;;1.57;;
7657;SDS011;8462;53.156;8.220;2024-02-23T13:47:37;2.13;;;1.53;;
7657;SDS011;8462;53.156;8.220;2024-02-23T13:50:05;4.20;;;1.83;;
7657;SDS011;8462;53.156;8.220;2024-02-23T13:52:35;3.07;;;1.50;;
7657;SDS011;8462;53.156;8.220;2024-02-23T13:55:04;3.00;;;1.40;;
7657;SDS011;8462;53.156;8.220;2024-02-23T13:57:33;3.10;;;1.57;;
7657;SDS011;8462;53.156;8.220;2024-02-23T14:00:01;2.27;;;1.60;;
7657;SDS011;8462;53.156;8.220;2024-02-23T14:02:37;3.50;;;1.40;;
7657;SDS011;8462;53.156;8.220;2024-02-23T14:05:05;3.93;;;1.40;;
7657;SDS011;8462;53.156;8.220;2024-02-23T14:07:37;5.37;;;2.00;;
7657;SDS011;8462;53.156;8.220;2024-02-23T14:10:05;4.93;;;1.77;;
7657;SDS011;8462;53.156;8.220;2024-02-23T14:12:35;6.60;;;1.97;;
7657;SDS011;8462;53.156;8.220;2024-02-23T14:15:04;4.20;;;1.70;;
7657;SDS011;8462;53.156;8.220;2024-02-23T14:17:33;6.60;;;2.00;;
7657;SDS011;8462;53.156;8.220;2024-02-23T14:20:00;2.67;;;2.07;;
7657;SDS011;8462;53.156;8.220;2024-02-23T14:22:28;4.10;;;1.80;;
7657;SDS011;8462;53.156;8.220;2024-02-23T14:24:59;6.07;;;1.73;;
7657;SDS011;8462;53.156;8.220;2024-02-23T14:27:28;6.30;;;2.77;;
7657;SDS011;8462;53.156;8.220;2024-02-23T14:29:55;3.60;;;1.70;;
7657;SDS011;8462;53.156;8.220;2024-02-23T14:32:23;2.57;;;1.70;;
7657;SDS011;8462;53.156;8.220;2024-02-23T14:34:53;4.33;;;1.73;;
7657;SDS011;8462;53.156;8.220;2024-02-23T14:37:21;3.13;;;1.70;;
7657;SDS011;8462;53.156;8.220;2024-02-23T14:39:49;2.97;;;1.40;;
7657;SDS011;8462;53.156;8.220;2024-02-23T14:42:20;4.57;;;1.60;;
7657;SDS011;8462;53.156;8.220;2024-02-23T14:44:49;5.73;;;1.67;;
7657;SDS011;8462;53.156;8.220;2024-02-23T14:47:17;4.70;;;1.57;;
7657;SDS011;8462;53.156;8.220;2024-02-23T14:49:44;3.23;;;1.97;;
7657;SDS011;8462;53.156;8.220;2024-02-23T14:52:18;4.67;;;2.60;;
7657;SDS011;8462;53.156;8.220;2024-02-23T14:54:50;3.40;;;2.30;;
7657;SDS011;8462;53.156;8.220;2024-02-23T14:57:21;4.73;;;1.83;;
7657;SDS011;8462;53.156;8.220;2024-02-23T14:59:49;3.70;;;2.23;;
7657;SDS011;8462;53.156;8.220;2024-02-23T15:02:19;2.60;;;1.63;;
7657;SDS011;8462;53.156;8.220;2024-02-23T15:04:46;2.77;;;1.37;;
7657;SDS011;8462;53.156;8.220;2024-02-23T15:07:16;2.80;;;1.77;;
7657;SDS011;8462;53.156;8.220;2024-02-23T15:09:49;5.20;;;1.70;;
7657;SDS011;8462;53.156;8.220;2024-02-23T15:12:19;3.53;;;1.70;;
7657;SDS011;8462;53.156;8.220;2024-02-23T15:14:49;3.77;;;1.93;;
7657;SDS011;8462;53.156;8.220;2024-02-23T15:17:17;4.13;;;1.70;;
7657;SDS011;8462;53.156;8.220;2024-02-23T15:19:46;3.10;;;1.47;;
7657;SDS011;8462;53.156;8.220;2024-02-23T15:22:13;4.43;;;1.67;;
7657;SDS011;8462;53.156;8.220;2024-02-23T15:24:43;3.30;;;1.70;;
7657;SDS011;8462;53.156;8.220;2024-02-23T15:27:12;2.67;;;1.73;;
7657;SDS011;8462;53.156;8.220;2024-02-23T15:29:46;5.33;;;1.77;;
7657;SDS011;8462;53.156;8.220;2024-02-23T15:32:14;3.27;;;1.47;;
7657;SDS011;8462;53.156;8.220;2024-02-23T15:34:42;3.97;;;1.43;;